createdAt,value
2019-01-29T07:20:25.141Z,64
2019-01-29T07:20:57.171Z,72
2019-01-29T07:21:29.234Z,72
2019-01-29T07:23:21.007Z,84
2019-01-29T07:23:53.039Z,88
2019-01-29T07:24:25.121Z,88
2019-01-29T07:24:57.102Z,92
2019-01-29T07:25:28.938Z,96
2019-01-29T07:26:01.236Z,100
2019-01-29T07:26:33.240Z,104
2019-01-29T07:27:05.244Z,104
2019-01-29T07:27:37.262Z,112
2019-01-29T07:28:09.286Z,112
2019-01-29T07:28:41.305Z,116
2019-01-29T07:29:13.341Z,120
2019-01-29T07:29:45.422Z,124
2019-01-29T07:30:17.451Z,132
2019-01-29T07:30:49.460Z,140
2019-01-29T07:31:21.474Z,140
2019-01-29T07:31:53.478Z,144
2019-01-29T07:32:26.234Z,148
2019-01-29T07:32:59.098Z,156
2019-01-29T07:33:31.109Z,160
2019-01-29T07:34:03.121Z,168
2019-01-29T07:34:35.173Z,172
2019-01-29T07:35:07.217Z,180
2019-01-29T07:35:39.222Z,184
2019-01-29T07:36:11.028Z,192
2019-01-29T07:38:02.743Z,212
2019-01-29T07:38:35.010Z,216
2019-01-29T07:39:07.007Z,220
2019-01-29T07:39:38.990Z,228
2019-01-29T07:40:11.182Z,236
2019-01-29T07:40:43.340Z,244
2019-01-29T07:41:15.335Z,252
2019-01-29T07:41:47.331Z,256
2019-01-29T07:43:40.081Z,284
2019-01-29T07:44:12.888Z,292
2019-01-29T07:46:04.194Z,308
2019-01-29T07:46:36.181Z,316
2019-01-29T07:48:27.850Z,352
2019-01-29T07:48:59.854Z,360
2019-01-29T07:49:31.894Z,368
2019-01-29T07:50:03.920Z,376
2019-01-29T07:51:55.376Z,400
2019-01-29T07:52:27.484Z,400
2019-01-29T07:52:59.484Z,404
2019-01-29T07:53:32.263Z,412
2019-01-29T07:54:04.271Z,424
2019-01-29T07:54:36.302Z,436
2019-01-29T07:55:08.297Z,440
2019-01-29T07:55:40.298Z,444
2019-01-29T07:56:12.301Z,444
2019-01-29T07:56:44.304Z,444
2019-01-29T07:58:35.903Z,464
2019-01-29T07:59:07.939Z,464
2019-01-29T07:59:39.930Z,472
2019-01-29T08:00:11.943Z,480
2019-01-29T08:02:04.478Z,500
2019-01-29T08:02:37.250Z,496
2019-01-29T08:03:09.280Z,492
2019-01-29T08:03:41.387Z,500
2019-01-29T08:04:14.462Z,520
2019-01-29T08:04:47.455Z,520
2019-01-29T08:05:21.524Z,528
2019-01-29T08:05:53.590Z,532
2019-01-29T08:06:25.632Z,536
2019-01-29T08:06:57.719Z,536
2019-01-29T08:07:30.089Z,548
2019-01-29T08:08:02.166Z,548
2019-01-29T08:08:34.157Z,556
2019-01-29T08:09:06.170Z,556
2019-01-29T08:09:38.700Z,560
2019-01-29T08:10:10.691Z,564
2019-01-29T08:12:02.394Z,548
2019-01-29T08:13:53.898Z,556
2019-01-29T08:14:25.999Z,576
2019-01-29T08:16:17.315Z,588
2019-01-29T08:16:49.285Z,584
2019-01-29T08:17:21.343Z,576
2019-01-29T08:17:53.695Z,568
2019-01-29T08:18:25.750Z,560
2019-01-29T08:18:57.816Z,548
2019-01-29T08:19:29.878Z,540
2019-01-29T08:20:01.915Z,532
2019-01-29T08:20:33.978Z,528
2019-01-29T08:21:05.976Z,528
2019-01-29T08:21:37.974Z,532
2019-01-29T08:22:10.240Z,536
2019-01-29T08:22:42.255Z,536
2019-01-29T08:23:14.401Z,548
2019-01-29T08:23:46.431Z,560
2019-01-29T08:24:18.464Z,580
2019-01-29T08:25:02.838Z,624
2019-01-29T08:25:34.870Z,660
2019-01-29T08:26:06.874Z,688
2019-01-29T08:26:38.958Z,716
2019-01-29T08:27:10.983Z,748
2019-01-29T08:27:42.997Z,752
2019-01-29T08:29:34.485Z,772
2019-01-29T08:30:06.487Z,768
2019-01-29T08:30:38.491Z,772
2019-01-29T08:32:29.778Z,832
2019-01-29T08:33:01.774Z,860
2019-01-29T08:33:33.940Z,884
2019-01-29T08:34:05.957Z,896
2019-01-29T08:34:38.026Z,900
2019-01-29T08:35:10.052Z,904
2019-01-29T08:35:42.900Z,908
2019-01-29T08:37:34.593Z,920
2019-01-29T08:38:06.587Z,932
2019-01-29T08:38:38.573Z,952
2019-01-29T08:39:10.569Z,964
2019-01-29T08:39:42.557Z,948
2019-01-29T08:40:14.543Z,916
2019-01-29T08:40:47.535Z,900
2019-01-29T08:41:20.590Z,928
2019-01-29T08:41:52.667Z,960
2019-01-29T08:42:24.668Z,984
2019-01-29T08:42:56.681Z,1008
2019-01-29T08:43:28.683Z,1024
2019-01-29T08:44:00.682Z,1044
2019-01-29T08:44:32.690Z,1060
2019-01-29T08:45:04.705Z,1068
2019-01-29T08:45:36.696Z,1068
2019-01-29T08:46:08.726Z,1064
2019-01-29T08:46:40.731Z,1072
2019-01-29T08:47:12.724Z,1072
2019-01-29T08:47:44.732Z,1068
2019-01-29T08:49:36.212Z,1096
2019-01-29T08:50:08.209Z,1108
2019-01-29T08:50:40.239Z,1112
2019-01-29T08:51:12.226Z,1124
2019-01-29T08:51:44.236Z,1132
2019-01-29T08:52:16.234Z,1144
2019-01-29T08:52:48.229Z,1148
2019-01-29T08:53:20.239Z,1168
2019-01-29T08:53:52.231Z,1192
2019-01-29T08:54:24.286Z,1212
2019-01-29T08:54:56.280Z,1256
2019-01-29T08:55:28.821Z,1288
2019-01-29T08:56:01.306Z,1288
2019-01-29T08:56:33.294Z,1300
2019-01-29T08:57:05.281Z,1296
2019-01-29T08:57:37.247Z,1320
2019-01-29T08:58:09.258Z,1348
2019-01-29T08:58:43.187Z,1332
2019-01-29T08:59:15.190Z,1336
2019-01-29T08:59:47.990Z,1340
2019-01-29T09:00:19.979Z,1344
2019-01-29T09:00:52.018Z,1460
2019-01-29T09:01:24.020Z,1476
2019-01-29T09:03:15.435Z,1428
2019-01-29T09:03:47.447Z,1348
2019-01-29T09:04:19.446Z,1320
2019-01-29T09:04:52.486Z,1348
2019-01-29T09:05:24.482Z,1688
2019-01-29T09:05:56.477Z,2120
2019-01-29T09:07:48.012Z,2000
2019-01-29T09:08:20.781Z,1896
2019-01-29T09:08:54.215Z,1976
2019-01-29T09:12:05.246Z,2276
2019-01-29T09:12:37.398Z,2268
2019-01-29T09:13:09.504Z,1856
2019-01-29T09:13:42.034Z,1676
2019-01-29T09:14:14.209Z,1784
2019-01-29T09:14:46.353Z,1704
2019-01-29T09:15:18.602Z,1624
2019-01-29T09:15:50.740Z,1688
2019-01-29T09:16:22.853Z,1748
2019-01-29T09:16:54.989Z,1616
2019-01-29T09:17:27.006Z,1356
2019-01-29T09:17:59.065Z,1208
2019-01-29T09:18:31.231Z,1188
2019-01-29T09:19:03.249Z,1332
2019-01-29T09:20:54.960Z,1604
2019-01-29T09:21:27.064Z,1640
2019-01-29T09:21:59.188Z,1728
2019-01-29T09:22:31.285Z,1680
2019-01-29T09:23:03.488Z,1544
2019-01-29T09:24:54.772Z,1812
2019-01-29T09:26:46.555Z,1660
2019-01-29T09:28:38.291Z,1752
2019-01-29T09:29:34.928Z,1816
2019-01-29T09:30:06.982Z,1796
2019-01-29T09:30:39.125Z,1504
2019-01-29T09:31:11.110Z,1324
2019-01-29T09:31:43.125Z,1188
2019-01-29T09:32:15.183Z,1204
2019-01-29T09:32:47.405Z,1220
2019-01-29T09:33:19.400Z,1204
2019-01-29T09:33:51.394Z,1248
2019-01-29T09:34:23.463Z,1432
2019-01-29T09:34:55.545Z,1588
2019-01-29T09:36:46.985Z,1808
2019-01-29T09:37:19.021Z,1908
2019-01-29T09:39:10.452Z,1624
2019-01-29T09:39:42.546Z,1504
2019-01-29T09:41:33.945Z,1144
2019-01-29T09:42:06.481Z,1084
2019-01-29T09:42:38.480Z,1020
2019-01-29T09:43:10.495Z,972
2019-01-29T09:43:42.499Z,936
2019-01-29T09:44:14.522Z,908
2019-01-29T09:46:05.926Z,784
2019-01-29T09:46:37.924Z,776
2019-01-29T09:47:09.932Z,736
2019-01-29T09:47:42.050Z,668
2019-01-29T09:48:14.045Z,592
2019-01-29T09:48:46.045Z,532
2019-01-29T09:49:18.041Z,516
2019-01-29T09:49:50.103Z,548
2019-01-29T09:50:22.108Z,572
2019-01-29T09:50:54.108Z,572
2019-01-29T09:51:26.099Z,576
2019-01-29T09:53:17.448Z,688
2019-01-29T09:53:49.447Z,744
2019-01-29T09:54:21.435Z,836
2019-01-29T09:54:53.424Z,912
2019-01-29T09:55:30.997Z,1028
2019-01-29T09:56:03.000Z,1100
2019-01-29T09:56:35.186Z,1132
2019-01-29T09:57:07.211Z,1092
2019-01-29T09:57:39.182Z,1000
2019-01-29T09:59:30.851Z,1000
2019-01-29T10:01:22.646Z,1612
2019-01-29T10:01:54.648Z,1664
2019-01-29T10:02:26.695Z,1724
2019-01-29T10:04:18.229Z,1744
2019-01-29T10:04:50.277Z,1628
2019-01-29T10:05:22.281Z,1528
2019-01-29T10:06:00.580Z,1560
2019-01-29T10:06:34.257Z,1336
2019-01-29T10:07:06.266Z,1304
2019-01-29T10:07:38.298Z,1544
2019-01-29T10:08:10.291Z,2004
2019-01-29T10:08:42.286Z,2288
2019-01-29T10:09:14.292Z,2208
2019-01-29T10:09:47.447Z,2040
2019-01-29T10:10:19.906Z,2204
2019-01-29T10:10:51.912Z,2204
2019-01-29T10:11:23.970Z,2348
2019-01-29T10:11:55.986Z,2828
2019-01-29T10:12:28.037Z,2420
2019-01-29T10:13:00.088Z,2548
2019-01-29T10:13:32.168Z,2536
2019-01-29T10:14:04.159Z,2656
2019-01-29T10:15:55.781Z,2748
2019-01-29T10:16:27.777Z,2972
2019-01-29T10:18:19.148Z,2596
2019-01-29T10:18:51.157Z,2308
2019-01-29T10:19:23.160Z,2044
2019-01-29T10:20:04.220Z,2156
2019-01-29T10:20:36.232Z,2556
2019-01-29T10:21:08.253Z,2740
2019-01-29T10:21:40.304Z,2888
2019-01-29T10:22:12.629Z,3000
2019-01-29T10:22:44.790Z,3376
2019-01-29T10:23:16.795Z,3412
2019-01-29T10:25:08.153Z,3632
2019-01-29T10:25:40.149Z,3308
2019-01-29T10:26:12.161Z,2916
2019-01-29T10:26:44.172Z,2948
2019-01-29T10:27:16.194Z,2704
2019-01-29T10:29:07.549Z,2588
2019-01-29T10:29:39.566Z,2516
2019-01-29T10:30:11.564Z,2472
2019-01-29T10:30:43.592Z,2480
2019-01-29T10:31:15.598Z,2664
2019-01-29T10:31:47.581Z,3016
2019-01-29T10:34:58.578Z,3060
2019-01-29T10:35:30.586Z,2484
2019-01-29T10:36:02.594Z,2200
2019-01-29T10:36:36.431Z,1972
2019-01-29T10:37:08.506Z,2276
2019-01-29T10:37:40.513Z,1920
2019-01-29T10:38:12.517Z,2100
2019-01-29T10:38:44.522Z,2176
2019-01-29T10:39:16.547Z,2312
2019-01-29T10:39:48.553Z,2324
2019-01-29T10:40:20.580Z,2360
2019-01-29T10:40:52.588Z,2428
2019-01-29T10:41:24.609Z,2408
2019-01-29T10:41:56.654Z,2516
2019-01-29T10:42:28.661Z,2652
2019-01-29T10:43:00.662Z,2528
2019-01-29T10:43:32.651Z,2196
2019-01-29T10:44:04.440Z,2140
2019-01-29T10:44:36.498Z,2088
2019-01-29T10:45:08.501Z,2020
2019-01-29T10:45:40.521Z,2028
2019-01-29T10:47:32.016Z,2300
2019-01-29T10:48:04.023Z,2328
2019-01-29T10:48:36.048Z,2356
2019-01-29T10:49:08.113Z,2368
2019-01-29T10:49:40.115Z,2360
2019-01-29T10:50:12.131Z,2336
2019-01-29T10:50:44.300Z,2264
2019-01-29T10:51:16.455Z,2164
2019-01-29T10:54:27.468Z,1840
2019-01-29T10:54:59.479Z,1832
2019-01-29T10:55:31.475Z,1880
2019-01-29T10:56:03.472Z,1876
2019-01-29T10:56:35.459Z,1824
2019-01-29T10:57:07.472Z,1788
2019-01-29T10:57:39.493Z,1900
2019-01-29T10:58:11.510Z,2152
2019-01-29T10:58:43.514Z,2456
2019-01-29T11:00:35.218Z,3836
2019-01-29T11:01:07.235Z,3772
2019-01-29T11:02:58.571Z,2672
2019-01-29T11:03:30.585Z,3372
2019-01-29T11:04:02.590Z,3296
2019-01-29T11:04:36.556Z,3260
2019-01-29T11:05:08.545Z,2988
2019-01-29T11:05:40.563Z,3144
2019-01-29T11:06:12.562Z,2988
2019-01-29T11:06:45.313Z,2484
2019-01-29T11:07:17.320Z,2576
2019-01-29T11:07:49.322Z,2736
2019-01-29T11:08:21.323Z,3320
2019-01-29T11:08:53.305Z,3264
2019-01-29T11:09:26.854Z,2820
2019-01-29T11:09:58.873Z,2540
2019-01-29T11:10:30.868Z,2572
2019-01-29T11:11:02.863Z,2748
2019-01-29T11:11:34.852Z,3124
2019-01-29T11:12:06.841Z,3200
2019-01-29T11:12:38.840Z,3300
2019-01-29T11:13:10.870Z,2896
2019-01-29T11:13:42.889Z,3028
2019-01-29T11:14:14.888Z,3016
2019-01-29T11:14:46.903Z,2868
2019-01-29T11:15:18.917Z,2952
2019-01-29T11:15:50.911Z,2808
2019-01-29T11:16:22.890Z,2632
2019-01-29T11:16:54.899Z,3028
2019-01-29T11:17:26.911Z,3172
2019-01-29T11:17:58.970Z,2860
2019-01-29T11:18:30.965Z,2668
2019-01-29T11:19:04.795Z,2812
2019-01-29T11:19:36.806Z,2904
2019-01-29T11:20:08.872Z,3044
2019-01-29T11:20:40.877Z,3496
2019-01-29T11:22:32.286Z,3448
2019-01-29T11:23:04.274Z,3768
2019-01-29T11:23:36.289Z,3656
2019-01-29T11:24:08.284Z,3592
2019-01-29T11:24:40.276Z,3336
2019-01-29T11:25:12.272Z,3704
2019-01-29T11:27:03.996Z,3660
2019-01-29T11:27:36.015Z,3908
2019-01-29T11:28:08.045Z,4232
2019-01-29T11:28:40.069Z,4108
2019-01-29T11:29:12.065Z,4000
2019-01-29T11:29:44.070Z,3796
2019-01-29T11:30:16.084Z,3716
2019-01-29T11:30:48.181Z,3772
2019-01-29T11:31:20.185Z,3928
2019-01-29T11:31:52.212Z,4056
2019-01-29T11:32:24.232Z,4068
2019-01-29T11:34:15.577Z,3896
2019-01-29T11:34:47.332Z,4028
2019-01-29T11:35:19.347Z,3708
2019-01-29T11:35:51.366Z,3288
2019-01-29T11:36:23.375Z,3300
2019-01-29T11:36:55.371Z,3588
2019-01-29T11:37:28.430Z,3820
2019-01-29T11:38:00.618Z,3604
2019-01-29T11:38:33.211Z,3724
2019-01-29T11:39:05.224Z,3852
2019-01-29T11:39:37.206Z,3520
2019-01-29T11:40:09.217Z,3144
2019-01-29T11:40:41.218Z,3400
2019-01-29T11:41:13.204Z,4020
2019-01-29T11:41:45.202Z,4328
2019-01-29T11:42:17.196Z,4288
2019-01-29T11:42:49.197Z,4196
2019-01-29T11:43:21.205Z,3952
2019-01-29T11:43:53.014Z,3876
2019-01-29T11:44:25.013Z,4040
2019-01-29T11:44:57.022Z,4120
2019-01-29T11:45:29.018Z,3628
2019-01-29T11:46:00.995Z,3492
2019-01-29T11:46:32.977Z,3656
2019-01-29T11:47:07.026Z,4200
2019-01-29T11:47:39.039Z,4204
2019-01-29T11:48:11.109Z,4212
2019-01-29T11:48:43.118Z,4216
2019-01-29T11:49:15.102Z,4004
2019-01-29T11:49:47.089Z,4120
2019-01-29T11:51:38.808Z,4244
2019-01-29T11:52:12.512Z,4676
2019-01-29T11:52:44.380Z,5172
2019-01-29T11:54:35.706Z,5800
2019-01-29T11:55:07.708Z,5952
2019-01-29T11:56:59.209Z,5576
2019-01-29T11:57:31.205Z,5664
2019-01-29T11:58:03.309Z,5736
2019-01-29T11:58:35.361Z,5960
2019-01-29T11:59:07.386Z,6140
2019-01-29T11:59:39.384Z,6112
2019-01-29T12:00:11.449Z,6044
2019-01-29T12:00:43.435Z,5768
2019-01-29T12:01:15.440Z,5608
2019-01-29T12:01:47.478Z,5480
2019-01-29T12:02:27.995Z,5480
2019-01-29T12:03:00.397Z,4504
2019-01-29T12:03:32.416Z,5912
2019-01-29T12:04:04.415Z,4876
2019-01-29T12:04:36.431Z,4304
2019-01-29T12:05:08.422Z,4476
2019-01-29T12:05:40.425Z,5836
2019-01-29T12:06:12.423Z,5780
2019-01-29T12:06:44.438Z,6468
2019-01-29T12:07:16.426Z,6928
2019-01-29T12:07:54.613Z,7140
2019-01-29T12:08:26.691Z,7160
2019-01-29T12:08:58.811Z,7176
2019-01-29T12:09:30.805Z,7288
2019-01-29T12:10:02.828Z,6996
2019-01-29T12:13:14.109Z,6908
2019-01-29T12:13:46.129Z,6920
2019-01-29T12:14:18.135Z,6980
2019-01-29T12:14:50.006Z,7148
2019-01-29T12:15:46.520Z,7128
2019-01-29T12:16:20.439Z,7120
2019-01-29T12:16:52.443Z,7048
2019-01-29T12:17:24.425Z,7072
2019-01-29T12:17:56.455Z,6176
2019-01-29T12:18:28.447Z,6996
2019-01-29T12:19:00.463Z,7564
2019-01-29T12:19:32.483Z,7848
2019-01-29T12:20:04.479Z,8148
2019-01-29T12:20:36.500Z,8484
2019-01-29T12:22:28.116Z,7768
2019-01-29T12:23:00.112Z,8004
2019-01-29T12:23:32.192Z,8028
2019-01-29T12:24:04.190Z,7848
2019-01-29T12:24:36.179Z,7728
2019-01-29T12:25:08.178Z,6372
2019-01-29T12:25:40.212Z,7688
2019-01-29T12:26:14.494Z,7484
2019-01-29T12:26:46.490Z,7328
2019-01-29T12:27:18.486Z,7224
2019-01-29T12:27:50.516Z,7108
2019-01-29T12:28:22.492Z,7152
2019-01-29T12:28:54.521Z,7044
2019-01-29T12:29:26.555Z,4720
2019-01-29T12:29:58.573Z,3320
2019-01-29T12:30:30.527Z,3208
2019-01-29T12:31:02.542Z,3068
2019-01-29T12:31:34.551Z,3156
2019-01-29T12:32:06.545Z,3536
2019-01-29T12:32:38.580Z,3984
2019-01-29T12:33:10.577Z,4388
2019-01-29T12:33:43.514Z,4204
2019-01-29T12:34:15.660Z,4396
2019-01-29T12:34:47.700Z,3840
2019-01-29T12:35:20.216Z,3584
2019-01-29T12:37:11.813Z,3904
2019-01-29T12:37:43.917Z,3912
2019-01-29T12:38:15.960Z,3680
2019-01-29T12:38:47.937Z,3480
2019-01-29T12:39:20.987Z,3304
2019-01-29T12:39:52.991Z,3184
2019-01-29T12:40:25.052Z,2796
2019-01-29T12:40:57.060Z,3704
2019-01-29T12:41:29.065Z,4328
2019-01-29T12:43:20.539Z,3144
2019-01-29T12:43:52.537Z,3588
2019-01-29T12:44:24.533Z,3780
2019-01-29T12:44:56.534Z,3572
2019-01-29T12:45:28.556Z,3504
2019-01-29T12:46:00.629Z,2848
2019-01-29T12:46:32.641Z,2280
2019-01-29T12:47:04.669Z,2372
2019-01-29T12:47:36.665Z,2896
2019-01-29T12:48:08.675Z,3180
2019-01-29T12:48:40.661Z,3220
2019-01-29T12:49:12.650Z,3096
2019-01-29T12:49:44.635Z,2800
2019-01-29T12:51:36.138Z,1960
2019-01-29T12:52:08.138Z,2068
2019-01-29T12:52:40.145Z,2112
2019-01-29T12:53:12.119Z,2204
2019-01-29T12:53:44.120Z,2168
2019-01-29T12:54:16.101Z,1972
2019-01-29T12:54:48.096Z,2028
2019-01-29T12:55:20.158Z,2368
2019-01-29T12:55:52.163Z,2744
2019-01-29T12:56:24.153Z,2556
2019-01-29T12:56:56.174Z,2572
2019-01-29T12:57:28.173Z,2644
2019-01-29T12:58:00.152Z,3020
2019-01-29T12:58:32.162Z,3336
2019-01-29T12:59:04.182Z,2900
2019-01-29T13:00:55.928Z,3956
2019-01-29T13:01:27.940Z,4668
2019-01-29T13:01:59.951Z,6140
2019-01-29T13:02:32.060Z,7500
2019-01-29T13:03:04.065Z,8596
2019-01-29T13:03:36.249Z,17664
2019-01-29T13:04:08.240Z,6652
2019-01-29T13:05:59.939Z,20928
2019-01-29T13:06:32.060Z,21952
2019-01-29T13:07:04.118Z,21792
2019-01-29T13:07:36.133Z,21824
2019-01-29T13:08:32.468Z,12612
2019-01-29T13:09:04.445Z,15592
2019-01-29T13:09:36.480Z,10276
2019-01-29T13:10:08.475Z,13240
2019-01-29T13:10:40.469Z,13632
2019-01-29T13:11:12.477Z,6820
2019-01-29T13:13:03.985Z,16672
2019-01-29T13:13:35.965Z,17632
2019-01-29T13:14:07.949Z,17408
2019-01-29T13:14:39.938Z,9292
2019-01-29T13:15:12.826Z,10088
2019-01-29T13:15:44.811Z,12920
2019-01-29T13:16:16.795Z,9940
2019-01-29T13:16:48.781Z,15256
2019-01-29T13:17:20.784Z,17600
2019-01-29T13:17:52.794Z,16640
2019-01-29T13:18:24.813Z,9028
2019-01-29T13:18:56.816Z,14308
2019-01-29T13:19:28.816Z,16672
2019-01-29T13:20:01.083Z,16960
2019-01-29T13:21:52.707Z,17664
2019-01-29T13:22:24.704Z,19104
2019-01-29T13:24:16.062Z,20992
2019-01-29T13:24:48.080Z,21248
2019-01-29T13:25:20.065Z,20992
2019-01-29T13:25:52.045Z,20096
2019-01-29T13:26:31.248Z,20576
2019-01-29T13:27:03.259Z,20544
2019-01-29T13:27:35.309Z,20768
2019-01-29T13:28:07.485Z,21312
2019-01-29T13:28:39.490Z,21600
2019-01-29T13:29:11.496Z,20736
2019-01-29T13:29:43.516Z,15508
2019-01-29T13:30:15.513Z,19328
2019-01-29T13:30:47.588Z,19904
2019-01-29T13:31:19.661Z,16768
2019-01-29T13:31:51.684Z,17504
2019-01-29T13:32:23.737Z,16960
2019-01-29T13:34:15.163Z,12688
2019-01-29T13:34:47.568Z,8984
2019-01-29T13:35:19.585Z,10116
2019-01-29T13:37:11.191Z,13380
2019-01-29T13:37:43.239Z,13212
2019-01-29T13:38:15.232Z,12452
2019-01-29T13:38:47.310Z,11772
2019-01-29T13:40:38.659Z,11904
2019-01-29T13:41:10.652Z,11600
2019-01-29T13:41:42.703Z,10452
2019-01-29T13:42:14.685Z,8960
2019-01-29T13:42:46.692Z,8188
2019-01-29T13:43:18.691Z,8128
2019-01-29T13:43:50.674Z,8896
2019-01-29T13:44:22.669Z,10524
2019-01-29T13:44:54.662Z,12888
2019-01-29T13:45:27.565Z,14868
2019-01-29T13:45:59.598Z,16288
2019-01-29T13:46:31.604Z,16864
2019-01-29T13:47:04.225Z,18464
2019-01-29T13:47:36.787Z,19200
2019-01-29T13:48:08.790Z,19360
2019-01-29T13:50:00.373Z,20320
2019-01-29T13:50:32.393Z,21472
2019-01-29T13:51:04.392Z,21952
2019-01-29T13:51:36.375Z,21120
2019-01-29T13:52:08.415Z,20960
2019-01-29T13:54:00.091Z,18208
2019-01-29T13:54:32.136Z,17504
2019-01-29T13:57:43.582Z,20000
2019-01-29T13:58:15.585Z,21184
2019-01-29T13:58:47.607Z,21952
2019-01-29T13:59:19.597Z,21920
2019-01-29T13:59:51.600Z,21376
2019-01-29T14:00:23.607Z,19456
2019-01-29T14:00:55.600Z,18464
2019-01-29T14:04:07.449Z,21728
2019-01-29T14:04:39.471Z,21056
2019-01-29T14:05:11.516Z,22432
2019-01-29T14:05:43.573Z,22240
2019-01-29T14:06:15.366Z,21248
2019-01-29T14:06:47.359Z,20704
2019-01-29T14:07:19.402Z,20096
2019-01-29T14:07:51.812Z,19712
2019-01-29T14:08:24.551Z,18816
2019-01-29T14:08:57.269Z,18368
2019-01-29T14:09:29.270Z,17408
2019-01-29T14:10:01.458Z,18432
2019-01-29T14:10:33.449Z,19136
2019-01-29T14:12:24.797Z,19680
2019-01-29T14:12:56.781Z,18560
2019-01-29T14:13:28.845Z,17952
2019-01-29T14:14:00.834Z,17440
2019-01-29T14:14:32.949Z,16288
2019-01-29T14:15:04.940Z,16064
2019-01-29T14:15:36.957Z,16384
2019-01-29T14:16:08.775Z,16192
2019-01-29T14:16:40.893Z,15328
2019-01-29T14:17:12.891Z,16032
2019-01-29T14:17:44.885Z,16320
2019-01-29T14:18:18.905Z,16160
2019-01-29T14:18:50.934Z,15072
2019-01-29T14:19:22.936Z,13668
2019-01-29T14:19:54.920Z,13240
2019-01-29T14:20:26.909Z,14752
2019-01-29T14:20:58.900Z,15136
2019-01-29T14:21:30.909Z,14944
2019-01-29T14:22:05.264Z,14304
2019-01-29T14:22:37.312Z,13312
2019-01-29T14:23:09.393Z,12724
2019-01-29T14:23:41.405Z,12416
2019-01-29T14:24:13.451Z,12416
2019-01-29T14:24:45.467Z,12216
2019-01-29T14:25:17.642Z,12104
2019-01-29T14:25:49.675Z,12248
2019-01-29T14:26:21.731Z,11600
2019-01-29T14:26:53.829Z,10888
2019-01-29T14:27:27.732Z,10280
2019-01-29T14:29:19.231Z,11100
2019-01-29T14:29:51.251Z,10796
2019-01-29T14:30:24.719Z,10052
2019-01-29T14:30:56.908Z,9552
2019-01-29T14:31:29.058Z,8924
2019-01-29T14:32:01.076Z,8208
2019-01-29T14:32:33.100Z,8836
2019-01-29T14:33:05.140Z,8544
2019-01-29T14:33:37.140Z,8640
2019-01-29T14:35:28.882Z,5800
2019-01-29T14:36:00.965Z,4480
2019-01-29T14:36:33.051Z,3904
2019-01-29T14:37:05.558Z,4164
2019-01-29T14:37:37.537Z,3592
2019-01-29T14:38:09.607Z,2976
2019-01-29T14:38:41.677Z,2792
2019-01-29T14:39:13.672Z,2656
2019-01-29T14:39:45.667Z,2528
2019-01-29T14:40:17.685Z,2304
2019-01-29T14:40:49.780Z,2112
2019-01-29T14:41:21.862Z,2036
2019-01-29T14:43:13.417Z,1924
2019-01-29T14:43:45.524Z,1828
2019-01-29T14:44:17.598Z,1732
2019-01-29T14:44:49.623Z,1624
2019-01-29T14:46:41.325Z,1384
2019-01-29T14:47:13.355Z,1460
2019-01-29T14:47:45.498Z,1616
2019-01-29T14:49:37.274Z,2264
2019-01-29T14:50:09.355Z,2448
2019-01-29T14:50:42.188Z,2536
2019-01-29T14:51:14.227Z,2576
2019-01-29T14:51:46.308Z,2692
2019-01-29T14:53:37.721Z,3212
2019-01-29T14:55:29.633Z,2912
2019-01-29T14:56:01.777Z,2796
2019-01-29T14:56:34.021Z,2744
2019-01-29T14:57:06.805Z,2720
2019-01-29T14:57:40.994Z,2676
2019-01-29T14:58:13.494Z,2628
2019-01-29T14:58:45.913Z,2568
2019-01-29T14:59:18.014Z,2492
2019-01-29T14:59:49.996Z,2384
2019-01-29T15:00:21.988Z,2304
2019-01-29T15:00:53.995Z,2280
2019-01-29T15:01:25.999Z,2280
2019-01-29T15:01:57.999Z,2284
2019-01-29T15:02:29.991Z,2288
2019-01-29T15:03:02.023Z,2284
2019-01-29T15:03:34.101Z,2284
2019-01-29T15:04:06.267Z,2284
2019-01-29T15:04:40.223Z,2248
2019-01-29T15:05:12.252Z,2164
2019-01-29T15:05:44.411Z,2084
2019-01-29T15:06:16.506Z,2028
2019-01-29T15:06:48.598Z,1980
2019-01-29T15:07:20.806Z,1936
2019-01-29T15:08:17.669Z,1820
2019-01-29T15:08:49.881Z,1752
2019-01-29T15:09:21.887Z,1692
2019-01-29T15:09:53.966Z,1624
2019-01-29T15:11:45.640Z,1436
2019-01-29T15:12:17.883Z,1392
2019-01-29T15:12:50.055Z,1348
2019-01-29T15:13:22.210Z,1308
2019-01-29T15:13:54.213Z,1276
2019-01-29T15:14:26.311Z,1240
2019-01-29T15:14:58.380Z,1216
2019-01-29T15:15:30.377Z,1188
2019-01-29T15:16:02.373Z,1164
2019-01-29T15:17:53.938Z,1096
2019-01-29T15:18:25.999Z,1068
2019-01-29T15:18:57.992Z,1036
2019-01-29T15:20:49.557Z,876
2019-01-29T15:21:21.568Z,824
2019-01-29T15:23:13.193Z,620
2019-01-29T15:23:45.202Z,560
2019-01-29T15:24:17.192Z,508
2019-01-29T15:24:49.169Z,460
2019-01-29T15:25:21.159Z,420
2019-01-29T15:25:53.154Z,380
2019-01-29T15:26:25.142Z,340
2019-01-29T15:27:23.466Z,300
2019-01-29T15:27:55.624Z,292
2019-01-29T15:28:27.609Z,276
2019-01-29T15:28:59.623Z,248
2019-01-29T15:29:31.622Z,216
2019-01-29T15:30:03.622Z,188
2019-01-29T15:30:35.690Z,172
2019-01-29T15:32:27.159Z,164
2019-01-29T15:32:59.164Z,172
2019-01-29T15:33:31.186Z,172
2019-01-29T15:34:03.197Z,172
2019-01-29T15:35:54.743Z,188
2019-01-29T15:36:26.721Z,192
2019-01-29T15:36:58.734Z,192
2019-01-29T15:37:30.740Z,196
2019-01-29T15:38:02.750Z,192
2019-01-29T15:38:34.724Z,184
2019-01-29T15:39:06.723Z,176
2019-01-29T15:39:38.707Z,164
2019-01-29T15:40:10.690Z,152
2019-01-29T15:40:42.676Z,140
2019-01-29T15:42:34.046Z,116
2019-01-29T15:43:05.830Z,108
2019-01-29T15:43:37.823Z,104
2019-01-29T15:44:09.819Z,100
2019-01-29T15:44:41.821Z,96
2019-01-29T15:45:13.845Z,88
2019-01-29T15:45:45.828Z,88
2019-01-29T15:46:17.830Z,84
2019-01-29T15:46:49.842Z,80
2019-01-29T15:47:21.859Z,80
2019-01-29T15:47:53.860Z,76
2019-01-29T15:48:25.849Z,72
2019-01-29T15:48:57.825Z,68
2019-01-29T15:49:29.812Z,68
2019-01-29T15:50:01.899Z,64
2019-01-29T15:50:33.887Z,64
2019-01-29T15:52:25.563Z,60
2019-01-29T15:52:57.552Z,60
2019-01-29T15:53:29.547Z,56
2019-01-29T15:54:01.554Z,52
2019-01-29T15:54:59.016Z,48
2019-01-29T15:55:31.020Z,48
2019-01-29T15:56:03.000Z,44
2019-01-29T15:56:34.980Z,40
2019-01-29T15:57:15.395Z,36
2019-01-29T15:57:47.391Z,36
2019-01-29T15:58:19.396Z,36
2019-01-29T15:58:51.366Z,32
2019-01-29T15:59:23.367Z,32
2019-01-29T15:59:55.369Z,32
2019-01-29T16:00:27.357Z,28
2019-01-29T16:00:59.357Z,28
2019-01-29T16:01:31.374Z,28
2019-01-29T16:03:23.100Z,20
2019-01-29T16:03:56.659Z,20
2019-01-29T16:04:28.651Z,24
2019-01-29T16:05:00.648Z,20
2019-01-29T16:05:32.649Z,20
2019-01-29T16:06:04.643Z,20
2019-01-29T16:06:36.635Z,20
2019-01-29T16:07:08.625Z,20
2019-01-29T16:07:40.615Z,20
2019-01-29T16:08:12.602Z,20
2019-01-29T16:10:04.270Z,20
2019-01-29T16:10:41.106Z,24
2019-01-29T16:11:13.108Z,24
2019-01-29T16:11:45.100Z,28
2019-01-29T16:12:17.157Z,28
2019-01-29T16:12:49.157Z,28
2019-01-29T16:13:21.158Z,32
2019-01-29T16:13:53.176Z,32
2019-01-29T16:14:25.188Z,36
2019-01-29T16:14:57.193Z,32
2019-01-29T16:15:29.190Z,32
2019-01-29T16:16:01.243Z,32
2019-01-29T16:16:33.244Z,32
2019-01-29T16:17:05.250Z,32
2019-01-29T16:17:37.243Z,32
2019-01-29T16:18:09.252Z,28
2019-01-29T16:18:41.306Z,28
2019-01-29T16:19:13.305Z,28
2019-01-29T16:19:45.295Z,24
2019-01-29T16:20:17.272Z,24
2019-01-29T16:20:49.264Z,24
2019-01-29T16:21:21.288Z,20
2019-01-29T16:21:53.283Z,20
2019-01-29T16:22:25.321Z,20
2019-01-29T16:22:57.357Z,16
2019-01-29T16:23:29.368Z,16
2019-01-29T16:24:01.374Z,12
2019-01-29T16:24:33.377Z,12
2019-01-29T16:25:05.366Z,8
2019-01-29T16:25:37.369Z,8
2019-01-29T16:26:09.373Z,12
2019-01-29T16:26:41.402Z,8
2019-01-29T16:28:32.992Z,8
2019-01-29T16:30:24.384Z,0
2019-01-29T16:30:56.389Z,4
2019-01-29T16:32:48.085Z,0